Time;durP1;ratioP1;P1;durP2;ratioP2;P2;SDS_P1;SDS_P2;PMS_P1;PMS_P2;Temp;Humidity;BMP_temperature;BMP_pressure;BME280_temperature;BME280_humidity;BME280_pressure;Samples;Min_cycle;Max_cycle;Signal;HPM_P1;HPM_P2
2022/09/13 00:00:05;;;;;;;8.20;5.93;;;;;;;16.40;80.02;100923.72;5035593;28;20068;-78
2022/09/13 00:02:30;;;;;;;7.03;6.25;;;;;;;16.38;80.50;100918.56;5038772;28;20036;-78
2022/09/13 00:04:56;;;;;;;7.10;5.97;;;;;;;16.37;80.72;100916.03;5036765;28;20380;-78
2022/09/13 00:07:21;;;;;;;9.98;5.82;;;;;;;16.38;80.90;100922.97;5038637;28;20492;-78
2022/09/13 00:09:46;;;;;;;7.15;5.65;;;;;;;16.38;80.86;100907.22;5053689;28;20052;-78
2022/09/13 00:12:11;;;;;;;8.32;6.25;;;;;;;16.39;80.32;100914.19;5053769;28;20480;-78
2022/09/13 00:14:37;;;;;;;7.85;5.63;;;;;;;16.39;80.65;100914.19;5038185;28;20153;-78
2022/09/13 00:17:02;;;;;;;7.88;5.50;;;;;;;16.39;80.80;100911.56;5040228;28;20029;-78
2022/09/13 00:19:27;;;;;;;7.47;5.75;;;;;;;16.39;80.68;100911.56;5038740;28;20127;-78
2022/09/13 00:21:53;;;;;;;7.13;5.35;;;;;;;16.39;80.67;100909.75;5039265;28;20075;-78
2022/09/13 00:24:18;;;;;;;10.43;6.28;;;;;;;16.38;79.61;100902.81;5035818;28;20037;-78
2022/09/13 00:26:44;;;;;;;7.80;6.07;;;;;;;16.39;78.91;100903.69;5039851;28;20029;-78
2022/09/13 00:29:09;;;;;;;8.80;6.10;;;;;;;16.42;79.31;100902.66;5035207;28;20021;-78
2022/09/13 00:31:34;;;;;;;8.52;6.78;;;;;;;16.43;78.66;100899.94;5037549;28;20468;-78
2022/09/13 00:33:59;;;;;;;11.90;7.15;;;;;;;16.44;78.53;100900.81;5045871;28;20040;-78
2022/09/13 00:36:25;;;;;;;11.73;6.80;;;;;;;16.43;78.40;100886.81;5050091;28;20033;-78
2022/09/13 00:38:50;;;;;;;10.00;6.50;;;;;;;16.44;78.47;100895.56;5035971;28;20536;-78
2022/09/13 00:41:18;;;;;;;9.25;6.80;;;;;;;16.42;78.02;100879.03;5040777;28;20480;-78
2022/09/13 00:43:46;;;;;;;9.68;6.28;;;;;;;16.43;77.75;100871.06;5034088;28;20064;-78
2022/09/13 00:46:38;;;;;;;8.75;6.53;;;;;;;16.44;77.80;100875.41;5036554;28;20068;-78
2022/09/13 00:49:24;;;;;;;8.82;6.68;;;;;;;16.47;78.00;100872.63;5042990;28;20041;-78
2022/09/13 00:51:58;;;;;;;9.55;6.25;;;;;;;16.48;78.01;100879.56;5040402;28;20029;-78
2022/09/13 00:54:28;;;;;;;8.63;6.25;;;;;;;16.47;77.75;100869.16;5033238;28;20105;-78
2022/09/13 00:56:58;;;;;;;10.75;6.10;;;;;;;16.47;78.00;100870.00;5035748;28;20168;-78
2022/09/13 00:59:32;;;;;;;7.15;5.88;;;;;;;16.48;77.81;100861.19;5039999;28;20374;-78
2022/09/13 01:02:00;;;;;;;7.60;6.32;;;;;;;16.49;77.95;100864.66;5032783;28;20025;-78
2022/09/13 01:04:29;;;;;;;6.78;5.57;;;;;;;16.49;77.44;100862.91;5041167;28;20026;-78
2022/09/13 01:06:58;;;;;;;8.18;6.28;;;;;;;16.49;77.51;100857.66;5040021;28;20129;-79
2022/09/13 01:09:24;;;;;;;8.05;5.88;;;;;;;16.51;77.58;100865.44;5042094;28;20032;-78
2022/09/13 01:12:03;;;;;;;9.48;6.00;;;;;;;16.52;77.13;100870.63;5038209;28;20104;-78
2022/09/13 01:14:30;;;;;;;7.72;5.75;;;;;;;16.54;77.33;100870.53;5028053;28;20053;-78
2022/09/13 01:16:56;;;;;;;9.05;6.07;;;;;;;16.54;77.14;100868.78;5044513;28;20032;-78
2022/09/13 01:19:21;;;;;;;7.60;5.97;;;;;;;16.56;77.01;100862.59;5040114;28;20037;-78
2022/09/13 01:22:01;;;;;;;7.60;5.97;;;;;;;16.56;77.08;100862.59;5037559;28;20427;-78
2022/09/13 01:24:48;;;;;;;6.93;5.80;;;;;;;16.59;77.21;100870.28;5045139;28;20493;-78
2022/09/13 01:27:32;;;;;;;8.88;6.20;;;;;;;16.58;76.87;100864.22;5039126;28;20028;-78
2022/09/13 01:30:16;;;;;;;7.57;5.53;;;;;;;16.60;77.01;100859.72;5037801;28;20515;-78
2022/09/13 01:33:08;;;;;;;8.82;5.70;;;;;;;16.62;77.11;100867.53;5032608;28;20388;-78
2022/09/13 01:35:59;;;;;;;6.70;5.40;;;;;;;16.62;76.93;100871.00;5037731;28;20424;-78
2022/09/13 01:38:41;;;;;;;7.40;5.72;;;;;;;16.63;77.18;100863.97;5038345;28;20416;-78
2022/09/13 01:41:41;;;;;;;9.00;5.57;;;;;;;16.64;76.94;100855.16;5039665;28;20083;-78
2022/09/13 01:44:27;;;;;;;6.30;5.32;;;;;;;16.63;77.05;100856.09;5025957;28;20033;-78
2022/09/13 01:47:14;;;;;;;7.00;5.47;;;;;;;16.65;76.97;100856.88;5041222;28;20072;-78
2022/09/13 01:49:57;;;;;;;6.35;5.20;;;;;;;16.65;76.59;100856.88;5048335;28;20033;-78
2022/09/13 01:52:33;;;;;;;6.53;5.40;;;;;;;16.65;77.09;100856.88;5049839;28;20126;-78
2022/09/13 01:55:27;;;;;;;7.88;5.32;;;;;;;16.67;76.68;100852.38;5041124;28;20021;-78
2022/09/13 01:58:14;;;;;;;7.25;5.63;;;;;;;16.65;76.98;100852.44;5048183;28;20065;-78
2022/09/13 02:00:55;;;;;;;7.03;5.20;;;;;;;16.66;76.81;100848.88;5044598;28;20018;-78
2022/09/13 02:03:28;;;;;;;7.72;5.57;;;;;;;16.66;77.52;100859.41;5042885;28;20044;-76
2022/09/13 02:06:22;;;;;;;7.28;5.50;;;;;;;16.66;77.39;100854.13;5039185;28;20504;-76
2022/09/13 02:08:59;;;;;;;8.10;5.82;;;;;;;16.64;78.05;100855.16;5041007;28;20065;-76
2022/09/13 02:11:25;;;;;;;6.75;5.43;;;;;;;16.61;78.51;100853.56;5048184;28;20159;-76
2022/09/13 02:14:06;;;;;;;8.02;5.93;;;;;;;16.59;77.82;100850.16;5038412;28;20112;-76
2022/09/13 02:16:36;;;;;;;8.30;5.87;;;;;;;16.58;78.27;100851.06;5037975;28;20028;-76
2022/09/13 02:19:07;;;;;;;7.75;5.45;;;;;;;16.54;78.75;100845.13;5027496;28;20380;-76
2022/09/13 02:21:38;;;;;;;7.17;5.63;;;;;;;16.54;78.55;100849.53;5038895;28;20075;-76
2022/09/13 02:24:18;;;;;;;9.60;6.07;;;;;;;16.52;79.26;100849.63;5044405;28;20380;-76
2022/09/13 02:26:45;;;;;;;6.85;5.53;;;;;;;16.53;79.53;100853.94;5039086;28;20102;-76
2022/09/13 02:29:16;;;;;;;7.88;5.60;;;;;;;16.53;80.92;100861.81;5036743;28;20066;-76
2022/09/13 02:31:54;;;;;;;8.02;5.07;;;;;;;16.53;81.34;100858.31;5038536;28;20059;-76
2022/09/13 02:34:30;;;;;;;7.28;5.78;;;;;;;16.49;79.99;100857.66;5040875;28;20396;-76
2022/09/13 02:36:57;;;;;;;7.40;5.50;;;;;;;16.47;79.78;100856.88;5050914;28;20044;-76
2022/09/13 02:39:26;;;;;;;7.13;5.80;;;;;;;16.45;79.99;100845.59;5048581;28;20024;-76
2022/09/13 02:41:55;;;;;;;8.50;6.50;;;;;;;16.46;79.14;100854.34;5042048;28;20029;-76
2022/09/13 02:44:20;;;;;;;12.32;5.90;;;;;;;16.47;79.00;100853.41;5038851;28;20036;-76
2022/09/13 02:47:00;;;;;;;7.47;5.63;;;;;;;16.47;78.86;100851.63;5024008;28;20017;-76
2022/09/13 02:49:30;;;;;;;7.43;5.75;;;;;;;16.46;79.35;100847.28;5035793;28;20029;-76
2022/09/13 02:52:26;;;;;;;9.90;5.68;;;;;;;16.47;79.18;100856.88;5043447;28;20148;-76
2022/09/13 02:54:58;;;;;;;9.75;5.45;;;;;;;16.47;79.30;100854.25;5049734;28;20040;-76
2022/09/13 02:57:36;;;;;;;9.38;5.22;;;;;;;16.47;79.26;100856.88;5038246;28;20033;-76
2022/09/13 03:00:03;;;;;;;7.90;5.65;;;;;;;16.48;78.94;100870.88;5034299;28;20493;-76
2022/09/13 03:02:32;;;;;;;10.23;5.78;;;;;;;16.48;79.22;100865.59;5040185;28;20032;-76
2022/09/13 03:04:59;;;;;;;7.65;5.47;;;;;;;16.49;78.84;100872.53;5034918;28;20033;-75
2022/09/13 03:07:25;;;;;;;8.20;5.22;;;;;;;16.48;78.80;100870.88;5051264;28;20032;-76
2022/09/13 03:10:03;;;;;;;8.13;5.63;;;;;;;16.49;78.91;100870.78;5054369;28;20036;-76
2022/09/13 03:13:14;;;;;;;7.35;5.68;;;;;;;16.52;78.49;100867.13;5049092;28;20032;-76
2022/09/13 03:16:06;;;;;;;7.30;5.53;;;;;;;16.54;78.40;100874.03;5031862;28;20071;-76
2022/09/13 03:18:57;;;;;;;7.07;5.47;;;;;;;16.56;78.58;100873.09;5029244;28;20068;-76
2022/09/13 03:21:29;;;;;;;6.50;5.28;;;;;;;16.56;78.60;100867.84;5040764;28;20029;-76
2022/09/13 03:24:08;;;;;;;6.75;5.13;;;;;;;16.54;79.24;100860.91;5048764;28;20024;-76
2022/09/13 03:26:59;;;;;;;7.00;4.90;;;;;;;16.53;78.70;100861.81;5045338;28;20425;-76
2022/09/13 03:29:54;;;;;;;7.40;5.32;;;;;;;16.53;78.78;100859.19;5052531;28;20029;-76
2022/09/13 03:32:43;;;;;;;7.57;5.40;;;;;;;16.52;78.64;100856.63;5040149;28;20041;-76
2022/09/13 03:35:38;;;;;;;9.23;5.97;;;;;;;16.52;78.89;100857.50;5041485;28;20091;-76
2022/09/13 03:38:16;;;;;;;6.88;5.30;;;;;;;16.51;78.50;100855.78;5052771;28;20043;-76
2022/09/13 03:40:53;;;;;;;7.97;5.28;;;;;;;16.53;78.69;100859.19;5044600;28;20029;-76
2022/09/13 03:43:24;;;;;;;8.20;5.57;;;;;;;16.53;78.60;100853.06;5035298;28;20078;-76
2022/09/13 03:45:59;;;;;;;8.80;5.45;;;;;;;16.53;78.37;100843.44;5040778;28;20030;-76
2022/09/13 03:48:26;;;;;;;6.97;5.28;;;;;;;16.54;78.88;100845.13;5036297;28;20446;-76
2022/09/13 03:50:53;;;;;;;7.18;5.47;;;;;;;16.55;79.10;100853.84;5016598;28;20026;-76
2022/09/13 03:53:22;;;;;;;7.55;5.18;;;;;;;16.53;79.05;100848.69;5041508;28;20040;-76
2022/09/13 03:55:48;;;;;;;5.93;4.97;;;;;;;16.55;78.74;100845.97;5044668;28;20017;-76
2022/09/13 03:58:16;;;;;;;6.88;4.90;;;;;;;16.56;79.02;100844.22;5045284;28;20033;-76
2022/09/13 04:00:42;;;;;;;7.63;5.20;;;;;;;16.54;79.24;100847.75;5042814;28;20040;-76
2022/09/13 04:03:08;;;;;;;7.07;5.10;;;;;;;16.55;78.56;100853.84;5037691;28;20427;-76
2022/09/13 04:05:33;;;;;;;6.43;5.10;;;;;;;16.54;78.33;100842.50;5054124;28;20497;-76
2022/09/13 04:08:00;;;;;;;8.05;5.07;;;;;;;16.55;78.26;100840.72;5052345;28;20025;-76
2022/09/13 04:10:26;;;;;;;6.10;4.68;;;;;;;16.56;78.44;100852.09;5043750;28;20507;-76
2022/09/13 04:12:53;;;;;;;6.72;5.25;;;;;;;16.54;78.84;100860.91;5050320;28;20103;-76
2022/09/13 04:15:18;;;;;;;6.30;4.75;;;;;;;16.55;79.16;100866.97;5044802;28;20078;-76
2022/09/13 04:17:44;;;;;;;8.63;5.47;;;;;;;16.56;78.35;100865.22;5050254;28;20025;-76
2022/09/13 04:20:10;;;;;;;8.05;4.97;;;;;;;16.53;78.12;100866.22;5043169;28;20025;-76
2022/09/13 04:22:35;;;;;;;7.20;5.18;;;;;;;16.53;78.16;100869.69;5032598;28;20033;-76
2022/09/13 04:25:01;;;;;;;7.70;5.43;;;;;;;16.53;78.24;100874.09;5047566;28;20030;-76
2022/09/13 04:27:26;;;;;;;8.15;5.22;;;;;;;16.53;78.56;100881.97;5033304;28;20052;-76
2022/09/13 04:29:51;;;;;;;6.68;5.13;;;;;;;16.52;78.04;100883.75;5050410;28;20025;-76
2022/09/13 04:32:16;;;;;;;5.68;4.65;;;;;;;16.52;77.82;100878.50;5044944;28;20025;-76
2022/09/13 04:34:42;;;;;;;8.23;4.88;;;;;;;16.52;78.47;100893.38;5046425;28;20025;-76
2022/09/13 04:37:08;;;;;;;8.13;4.88;;;;;;;16.49;78.41;100881.28;5041093;28;20021;-76
2022/09/13 04:39:33;;;;;;;7.30;4.60;;;;;;;16.49;79.23;100880.41;5032755;28;20451;-76
2022/09/13 04:41:58;;;;;;;6.47;5.10;;;;;;;16.45;79.68;100878.88;5035445;28;20024;-76
2022/09/13 04:44:24;;;;;;;7.53;4.97;;;;;;;16.44;80.17;100877.19;5035329;28;20041;-76
2022/09/13 04:46:49;;;;;;;7.20;5.00;;;;;;;16.42;79.92;100887.75;5032529;28;20029;-76
2022/09/13 04:49:16;;;;;;;6.10;4.93;;;;;;;16.39;79.57;100886.13;5042291;28;20534;-76
2022/09/13 04:51:41;;;;;;;6.40;4.78;;;;;;;16.36;79.78;100888.06;5041728;28;20036;-76
2022/09/13 04:54:09;;;;;;;7.45;4.85;;;;;;;16.34;79.96;100882.88;5031790;28;20022;-76
2022/09/13 04:56:34;;;;;;;7.28;5.13;;;;;;;16.34;79.79;100893.38;5043072;28;20080;-76
2022/09/13 04:58:59;;;;;;;7.85;4.95;;;;;;;16.33;80.21;100893.47;5037283;28;20052;-76
2022/09/13 05:01:25;;;;;;;6.20;4.78;;;;;;;16.32;80.51;100892.59;5034748;28;20448;-76
2022/09/13 05:03:52;;;;;;;8.15;5.20;;;;;;;16.32;80.80;100897.00;5033843;28;20488;-76
2022/09/13 05:06:17;;;;;;;7.00;5.30;;;;;;;16.32;79.86;100903.09;5038334;28;20064;-76
2022/09/13 05:08:43;;;;;;;7.10;5.30;;;;;;;16.31;79.84;100898.78;5041951;28;20075;-76
2022/09/13 05:11:09;;;;;;;8.52;5.63;;;;;;;16.33;79.82;100903.97;5042090;28;20082;-76
2022/09/13 05:13:35;;;;;;;7.07;5.50;;;;;;;16.35;79.59;100896.88;5040531;28;20058;-76
2022/09/13 05:16:04;;;;;;;6.78;5.22;;;;;;;16.35;79.97;100907.38;5032643;28;20096;-76
2022/09/13 05:18:31;;;;;;;7.78;5.25;;;;;;;16.35;80.23;100902.13;5032989;28;20047;-76
2022/09/13 05:20:58;;;;;;;7.82;5.18;;;;;;;16.33;80.46;100902.19;5033138;28;20081;-76
2022/09/13 05:23:24;;;;;;;7.18;5.40;;;;;;;16.33;80.94;100903.97;5045729;28;20029;-76
2022/09/13 05:25:56;;;;;;;6.82;5.43;;;;;;;16.34;80.68;100900.41;5036354;28;20030;-76
2022/09/13 05:28:23;;;;;;;6.22;4.88;;;;;;;16.33;80.82;100896.09;5034822;28;20036;-76
2022/09/13 05:30:55;;;;;;;6.28;5.03;;;;;;;16.33;80.44;100899.56;5041011;28;20029;-76
2022/09/13 05:33:21;;;;;;;7.72;5.35;;;;;;;16.32;81.01;100905.72;5036397;28;20060;-76
2022/09/13 05:35:46;;;;;;;8.07;5.40;;;;;;;16.33;81.27;100903.97;5041771;28;20072;-76
2022/09/13 05:38:11;;;;;;;5.93;4.80;;;;;;;16.34;81.27;100909.13;5032920;28;20034;-76
2022/09/13 05:40:36;;;;;;;7.03;5.47;;;;;;;16.34;81.32;100903.03;5032860;28;20418;-76
2022/09/13 05:43:02;;;;;;;9.10;5.50;;;;;;;16.35;81.58;100902.13;5032909;28;20417;-76
2022/09/13 05:45:28;;;;;;;6.82;5.53;;;;;;;16.36;81.54;100912.53;5034643;28;20021;-76
2022/09/13 05:47:53;;;;;;;8.15;5.53;;;;;;;16.38;81.71;100917.72;5030991;28;20037;-76
2022/09/13 05:50:19;;;;;;;7.75;5.45;;;;;;;16.39;81.46;100915.03;5035820;28;20060;-76
2022/09/13 05:52:50;;;;;;;8.68;5.60;;;;;;;16.40;81.17;100907.97;5047510;28;20368;-76
2022/09/13 05:55:15;;;;;;;8.00;5.63;;;;;;;16.42;81.37;100906.13;5035538;28;20044;-76
2022/09/13 05:57:41;;;;;;;6.70;5.40;;;;;;;16.44;81.11;100904.28;5043171;28;20472;-76
2022/09/13 06:00:08;;;;;;;8.07;5.75;;;;;;;16.47;81.02;100905.94;5037127;28;20078;-77
2022/09/13 06:02:33;;;;;;;8.43;5.95;;;;;;;16.47;81.18;100901.50;5034335;28;20075;-76
2022/09/13 06:04:59;;;;;;;10.00;6.00;;;;;;;16.47;81.18;100901.50;5033811;28;20029;-76
2022/09/13 06:07:24;;;;;;;7.80;5.80;;;;;;;16.49;81.50;100899.66;5044324;28;20468;-77
2022/09/13 06:09:49;;;;;;;10.13;6.20;;;;;;;16.51;81.41;100892.56;5032694;28;20044;-76
2022/09/13 06:12:14;;;;;;;8.45;6.07;;;;;;;16.53;81.27;100901.22;5032662;28;20564;-76
2022/09/13 06:14:40;;;;;;;9.00;5.97;;;;;;;16.54;81.08;100897.66;5029374;28;20036;-76
2022/09/13 06:17:05;;;;;;;9.20;6.50;;;;;;;16.58;80.68;100908.00;5029637;28;20028;-76
2022/09/13 06:19:30;;;;;;;12.27;6.53;;;;;;;16.60;80.72;100900.88;5015678;28;20062;-75
2022/09/13 06:21:56;;;;;;;10.88;6.78;;;;;;;16.64;80.58;100902.44;5037286;28;20115;-75
2022/09/13 06:24:21;;;;;;;9.45;6.07;;;;;;;16.67;81.35;100897.88;5039471;28;20052;-76
2022/09/13 06:26:46;;;;;;;8.65;6.32;;;;;;;16.71;81.60;100906.47;5036248;28;20113;-76
2022/09/13 06:29:11;;;;;;;10.50;6.35;;;;;;;16.73;80.02;100907.25;5034778;28;20025;-75
2022/09/13 06:31:42;;;;;;;9.32;6.70;;;;;;;16.75;79.31;100902.75;5032172;28;20465;-76
2022/09/13 06:34:10;;;;;;;9.33;7.00;;;;;;;16.79;78.67;100899.03;5032273;28;20026;-76
2022/09/13 06:36:35;;;;;;;9.65;6.70;;;;;;;16.83;78.23;100903.22;5040466;28;20290;-76
2022/09/13 06:39:00;;;;;;;8.98;6.90;;;;;;;16.86;79.05;100893.47;5044718;28;20111;-76
2022/09/13 06:41:26;;;;;;;11.43;6.82;;;;;;;16.91;77.95;100904.59;5036727;28;20392;-76
2022/09/13 06:43:57;;;;;;;9.07;7.35;;;;;;;16.94;78.23;100896.53;5036983;28;20040;-76
2022/09/13 06:46:24;;;;;;;10.15;7.28;;;;;;;16.96;77.50;100892.97;5049325;28;20435;-76
2022/09/13 06:48:49;;;;;;;9.10;6.88;;;;;;;16.97;77.73;100897.28;5036736;28;20075;-76
2022/09/13 06:51:17;;;;;;;9.77;7.63;;;;;;;17.00;77.28;100893.63;5035774;28;20215;-77
2022/09/13 06:53:44;;;;;;;10.27;7.03;;;;;;;17.00;77.60;100893.63;5046959;28;20024;-77
2022/09/13 06:56:12;;;;;;;9.38;7.45;;;;;;;17.02;78.28;100891.78;5035314;28;20404;-76
2022/09/13 06:58:39;;;;;;;11.57;7.88;;;;;;;17.03;78.27;100893.47;5040130;28;20468;-77
2022/09/13 07:01:24;;;;;;;9.60;7.60;;;;;;;17.10;78.04;100897.47;5045211;28;20090;-76
2022/09/13 07:04:02;;;;;;;9.68;7.78;;;;;;;17.14;78.13;100893.75;5038044;28;20068;-76
2022/09/13 07:06:33;;;;;;;9.38;7.47;;;;;;;17.19;77.90;100892.69;5047969;28;20502;-76
2022/09/13 07:08:59;;;;;;;9.88;7.78;;;;;;;17.24;77.46;100895.91;5050971;28;20151;-76
2022/09/13 07:11:29;;;;;;;11.70;8.05;;;;;;;17.31;77.18;100896.44;5043494;28;20032;-76
2022/09/13 07:13:56;;;;;;;11.10;8.23;;;;;;;17.36;77.60;100890.00;5044222;28;20033;-76
2022/09/13 07:16:24;;;;;;;13.48;8.65;;;;;;;17.40;77.30;100891.53;5040826;28;20029;-77
2022/09/13 07:18:51;;;;;;;11.15;8.50;;;;;;;17.45;76.98;100893.91;5036737;28;20025;-76
2022/09/13 07:21:17;;;;;;;12.65;8.60;;;;;;;17.51;77.38;100901.47;5044087;28;20388;-76
2022/09/13 07:23:42;;;;;;;10.93;8.55;;;;;;;17.54;77.28;100900.47;5042603;28;20029;-77
2022/09/13 07:26:08;;;;;;;15.13;9.55;;;;;;;17.58;78.06;100904.63;5034615;28;20027;-76
2022/09/13 07:28:36;;;;;;;14.68;9.50;;;;;;;17.60;77.04;100903.59;5035396;28;20021;-76
2022/09/13 07:31:05;;;;;;;13.02;9.80;;;;;;;17.63;77.30;100901.75;5038171;28;20496;-78
2022/09/13 07:33:30;;;;;;;13.13;9.30;;;;;;;17.67;77.52;100904.13;5042416;28;20052;-77
2022/09/13 07:35:58;;;;;;;12.85;9.35;;;;;;;17.72;77.89;100909.13;5042126;28;20473;-77
2022/09/13 07:38:24;;;;;;;16.60;10.75;;;;;;;17.78;77.50;100910.56;5037723;28;20032;-77
2022/09/13 07:40:57;;;;;;;14.98;9.82;;;;;;;17.82;77.24;100905.06;5042112;28;20480;-77
2022/09/13 07:43:22;;;;;;;13.98;10.23;;;;;;;17.90;77.08;100912.53;5037839;28;20025;-77
2022/09/13 07:45:56;;;;;;;14.27;10.13;;;;;;;17.94;76.84;100915.84;5039758;28;20044;-77
2022/09/13 07:48:22;;;;;;;17.90;10.82;;;;;;;17.98;77.27;100923.50;5040318;28;20040;-76
2022/09/13 07:50:56;;;;;;;16.00;11.48;;;;;;;18.05;77.77;100921.38;5042021;28;20037;-78
2022/09/13 07:53:21;;;;;;;21.58;11.40;;;;;;;18.10;77.87;100924.59;5042000;28;20033;-77
2022/09/13 07:55:47;;;;;;;15.35;11.27;;;;;;;18.17;77.54;100930.38;5041651;28;20040;-78
2022/09/13 07:58:12;;;;;;;16.55;11.73;;;;;;;18.22;78.05;100925.69;5038109;28;20079;-77
2022/09/13 08:00:37;;;;;;;19.45;12.35;;;;;;;18.28;77.47;100929.75;5034841;28;20274;-77
2022/09/13 08:03:03;;;;;;;17.98;12.15;;;;;;;18.33;77.53;100933.81;5038817;28;20540;-77
2022/09/13 08:05:28;;;;;;;19.83;12.98;;;;;;;18.39;77.05;100931.78;5037281;28;20111;-77
2022/09/13 08:07:53;;;;;;;18.40;13.07;;;;;;;18.44;77.04;100929.75;5040067;28;20033;-77
2022/09/13 08:10:19;;;;;;;20.38;13.55;;;;;;;18.51;77.97;100925.81;5041063;28;20370;-77
2022/09/13 08:12:45;;;;;;;19.58;14.48;;;;;;;18.56;77.59;100925.53;5040266;28;20031;-77
2022/09/13 08:15:10;;;;;;;20.13;14.07;;;;;;;18.62;77.22;100926.00;5040407;28;20087;-77
2022/09/13 08:17:35;;;;;;;20.17;14.23;;;;;;;18.68;76.98;100923.97;5040481;28;20033;-77
2022/09/13 08:20:01;;;;;;;20.77;14.75;;;;;;;18.74;77.08;100920.97;5037467;28;20040;-77
2022/09/13 08:22:26;;;;;;;20.85;14.18;;;;;;;18.79;77.04;100935.59;5039695;28;20035;-76
2022/09/13 08:24:51;;;;;;;21.63;15.18;;;;;;;18.86;77.78;100928.16;5041226;28;20549;-77
2022/09/13 08:27:16;;;;;;;22.23;15.07;;;;;;;18.91;78.25;100934.00;5038480;28;20049;-78
2022/09/13 08:29:42;;;;;;;21.67;14.55;;;;;;;18.96;77.26;100926.69;5037052;28;20028;-78
2022/09/13 08:32:07;;;;;;;20.45;14.93;;;;;;;19.01;77.09;100936.13;5034510;28;20033;-77
2022/09/13 08:34:32;;;;;;;21.05;14.70;;;;;;;19.05;77.73;100942.91;5037661;28;21250;-78
2022/09/13 08:36:58;;;;;;;21.13;15.25;;;;;;;19.10;77.58;100943.50;5042279;28;20609;-77
2022/09/13 08:39:23;;;;;;;21.67;14.90;;;;;;;19.17;77.87;100950.06;5042200;28;20472;-77
2022/09/13 08:41:59;;;;;;;20.75;15.20;;;;;;;19.24;76.91;100950.53;5046187;28;20036;-77
2022/09/13 08:44:43;;;;;;;22.70;16.13;;;;;;;19.25;76.07;100946.97;5027417;28;20075;-78
2022/09/13 08:47:27;;;;;;;24.02;15.15;;;;;;;19.31;77.06;100943.09;5045152;28;20021;-78
2022/09/13 08:50:05;;;;;;;20.75;15.60;;;;;;;19.36;77.42;100948.97;5047587;28;20059;-77
2022/09/13 08:52:42;;;;;;;19.35;14.73;;;;;;;19.40;76.57;100942.56;5046878;28;20029;-77
2022/09/13 08:55:34;;;;;;;21.98;15.80;;;;;;;19.44;76.34;100945.84;5043715;28;20036;-77
2022/09/13 08:58:10;;;;;;;;;;;;;;;19.47;76.52;100946.50;5043204;28;20538;-78
2022/09/13 09:00:39;;;;;;;25.52;16.75;;;;;;;19.51;75.98;100948.00;5046056;28;20372;-78
2022/09/13 09:03:20;;;;;;;22.58;14.75;;;;;;;19.55;76.25;100943.41;5045120;28;20039;-77
2022/09/13 09:05:49;;;;;;;19.50;14.55;;;;;;;19.63;75.64;100945.56;5044005;28;20049;-78
2022/09/13 09:08:26;;;;;;;18.75;14.27;;;;;;;19.67;76.11;100947.91;5044294;28;20045;-77
2022/09/13 09:10:55;;;;;;;17.40;13.48;;;;;;;19.71;76.32;100948.56;5046942;28;20025;-77
2022/09/13 09:13:28;;;;;;;19.40;13.55;;;;;;;19.75;76.02;100928.97;5044564;28;20105;-77
2022/09/13 09:16:00;;;;;;;17.42;13.40;;;;;;;19.82;76.85;100937.34;5046092;28;20043;-77
2022/09/13 09:18:33;;;;;;;19.95;14.30;;;;;;;19.86;75.44;100930.91;5046270;28;20468;-78
2022/09/13 09:21:02;;;;;;;17.55;12.75;;;;;;;19.93;75.70;100934.88;5046561;28;20060;-78
2022/09/13 09:23:36;;;;;;;19.25;14.43;;;;;;;19.98;75.25;100934.59;5027533;28;20438;-78
2022/09/13 09:26:25;;;;;;;17.83;13.48;;;;;;;20.02;75.28;100921.09;5046475;28;20055;-77
2022/09/13 09:29:28;;;;;;;17.90;13.30;;;;;;;20.06;75.37;100916.47;5046601;28;20025;-77
2022/09/13 09:31:58;;;;;;;18.40;13.70;;;;;;;20.13;75.74;100923.06;5039733;28;20136;-78
2022/09/13 09:34:44;;;;;;;18.27;13.05;;;;;;;20.19;74.93;100926.22;5046615;28;20581;-77
2022/09/13 09:37:25;;;;;;;14.68;11.25;;;;;;;20.24;74.96;100926.78;5046346;28;20024;-77
2022/09/13 09:39:59;;;;;;;15.40;11.15;;;;;;;20.28;75.13;100923.00;5046598;28;20029;-78
2022/09/13 09:42:28;;;;;;;15.52;11.23;;;;;;;20.27;73.49;100919.50;5044159;28;20029;-77
2022/09/13 09:45:03;;;;;;;14.30;10.35;;;;;;;20.29;74.73;100928.16;5039115;28;20032;-78
2022/09/13 09:47:37;;;;;;;14.27;9.40;;;;;;;20.31;74.73;100930.72;5034676;28;21109;-78
2022/09/13 09:50:11;;;;;;;13.63;9.82;;;;;;;20.30;74.03;100921.94;5040835;28;20087;-77
2022/09/13 09:52:49;;;;;;;14.52;10.38;;;;;;;20.33;74.17;100928.81;5021597;28;20040;-77
2022/09/13 09:55:33;;;;;;;14.70;10.75;;;;;;;20.37;74.75;100924.19;5040055;28;20029;-77
2022/09/13 09:58:05;;;;;;;14.10;10.90;;;;;;;20.43;75.27;100927.25;5040330;28;20040;-76
2022/09/13 10:00:34;;;;;;;17.55;11.25;;;;;;;20.51;74.88;100931.19;5038559;28;20484;-76
2022/09/13 10:03:04;;;;;;;16.98;11.88;;;;;;;20.58;75.41;100928.03;5032198;28;20071;-76
2022/09/13 10:05:31;;;;;;;15.63;10.98;;;;;;;20.65;74.93;100919.69;5014614;28;20655;-76
2022/09/13 10:08:01;;;;;;;15.40;11.52;;;;;;;20.71;74.48;100921.94;5034064;28;20091;-76
2022/09/13 10:10:35;;;;;;;16.52;11.52;;;;;;;20.80;74.44;100926.63;5036823;28;20107;-76
2022/09/13 10:13:03;;;;;;;16.40;11.65;;;;;;;20.88;73.35;100918.16;5042297;28;20395;-76
2022/09/13 10:15:34;;;;;;;15.60;11.98;;;;;;;20.97;72.81;100919.31;5037774;28;20622;-76
2022/09/13 10:18:26;;;;;;;15.27;11.10;;;;;;;21.07;73.33;100923.06;5045574;28;20151;-76
2022/09/13 10:21:17;;;;;;;14.68;10.30;;;;;;;21.23;73.34;100912.22;5037762;28;20095;-76
2022/09/13 10:23:43;;;;;;;13.68;10.18;;;;;;;21.30;71.82;100915.28;5047174;28;20125;-76
2022/09/13 10:26:12;;;;;;;11.35;7.97;;;;;;;21.30;70.48;100910.88;5043767;28;20029;-77
2022/09/13 10:28:43;;;;;;;11.45;9.02;;;;;;;21.33;72.26;100913.31;5042543;28;20120;-76
2022/09/13 10:31:15;;;;;;;12.75;9.43;;;;;;;21.35;72.36;100911.38;5037682;28;20473;-76
2022/09/13 10:33:49;;;;;;;11.13;8.77;;;;;;;21.35;72.04;100914.00;5040471;28;20017;-76
2022/09/13 10:36:23;;;;;;;11.73;8.35;;;;;;;21.35;72.22;100910.53;5037587;28;20035;-76
2022/09/13 10:38:58;;;;;;;11.05;7.88;;;;;;;21.37;71.77;100911.28;5033974;28;20021;-76
2022/09/13 10:41:26;;;;;;;11.15;7.60;;;;;;;21.40;70.77;100912.84;5030553;28;20033;-76
2022/09/13 10:43:57;;;;;;;9.38;6.60;;;;;;;21.44;71.99;100915.16;5034493;28;20043;-76
2022/09/13 10:46:23;;;;;;;10.27;6.88;;;;;;;21.51;69.70;100912.94;5035779;28;20051;-76
2022/09/13 10:48:55;;;;;;;9.13;7.15;;;;;;;21.56;69.63;100902.88;5037340;28;20404;-76
2022/09/13 10:51:26;;;;;;;10.13;6.93;;;;;;;21.59;69.64;100902.66;5032936;28;20496;-76
2022/09/13 10:54:23;;;;;;;9.43;6.97;;;;;;;21.58;70.58;100906.25;5034277;28;20032;-76
2022/09/13 10:56:52;;;;;;;8.50;6.45;;;;;;;21.48;69.62;100908.69;5038622;28;20079;-76
2022/09/13 10:59:28;;;;;;;11.02;7.13;;;;;;;21.38;69.42;100905.03;5038778;28;20111;-76
2022/09/13 11:02:14;;;;;;;8.40;6.72;;;;;;;21.33;69.50;100907.16;5038353;28;20033;-76
2022/09/13 11:04:45;;;;;;;8.38;6.22;;;;;;;21.33;69.90;100900.06;5034078;28;20034;-76
2022/09/13 11:07:32;;;;;;;8.82;6.47;;;;;;;21.38;70.64;100897.09;5038489;28;20045;-76
2022/09/13 11:10:35;;;;;;;11.55;6.43;;;;;;;21.49;70.44;100897.16;5033935;28;20384;-76
2022/09/13 11:13:06;;;;;;;10.52;5.68;;;;;;;21.60;68.97;100893.78;5007559;28;20044;-76
2022/09/13 11:15:56;;;;;;;6.82;5.38;;;;;;;21.63;69.64;100890.91;5037676;28;20035;-77
2022/09/13 11:18:30;;;;;;;7.57;5.38;;;;;;;21.68;69.28;100888.81;5036458;28;20036;-76
2022/09/13 11:21:32;;;;;;;9.48;5.70;;;;;;;21.71;68.87;100886.84;5033279;28;20028;-76
2022/09/13 11:24:34;;;;;;;8.77;4.90;;;;;;;21.75;69.44;100883.03;5034553;28;20044;-76
2022/09/13 11:27:11;;;;;;;6.75;4.95;;;;;;;21.76;68.33;100879.44;5035345;28;20025;-76
2022/09/13 11:29:55;;;;;;;7.75;5.38;;;;;;;21.77;68.47;100867.88;5035614;28;20088;-76
2022/09/13 11:32:47;;;;;;;6.85;4.85;;;;;;;21.78;66.98;100865.13;5034745;28;20540;-76
2022/09/13 11:35:40;;;;;;;6.78;5.10;;;;;;;21.83;68.24;100873.56;5041014;28;20499;-76
2022/09/13 11:38:22;;;;;;;7.60;5.38;;;;;;;21.88;68.84;100870.59;5033392;28;20200;-76
2022/09/13 11:41:04;;;;;;;7.28;5.40;;;;;;;21.91;68.42;100867.72;5032726;28;20506;-77
2022/09/13 11:43:56;;;;;;;8.55;5.10;;;;;;;21.95;68.28;100870.97;5020134;28;20033;-77